sensor_id;sensor_type;location;lat;lon;timestamp;temperature;humidity
18797;DHT22;9526;52.612;13.300;2022-09-09T00:02:18;15.40;99.90
18797;DHT22;9526;52.612;13.300;2022-09-09T00:04:49;15.40;99.90
18797;DHT22;9526;52.612;13.300;2022-09-09T00:07:21;15.30;99.90
18797;DHT22;9526;52.612;13.300;2022-09-09T00:09:54;15.30;99.90
18797;DHT22;9526;52.612;13.300;2022-09-09T00:12:27;15.30;99.90
18797;DHT22;9526;52.612;13.300;2022-09-09T00:15:02;15.20;99.90
18797;DHT22;9526;52.612;13.300;2022-09-09T00:17:35;15.20;99.90
18797;DHT22;9526;52.612;13.300;2022-09-09T00:20:05;15.20;99.90
18797;DHT22;9526;52.612;13.300;2022-09-09T00:22:35;15.20;99.90
18797;DHT22;9526;52.612;13.300;2022-09-09T00:25:05;15.10;99.90
18797;DHT22;9526;52.612;13.300;2022-09-09T00:27:38;15.10;99.90
18797;DHT22;9526;52.612;13.300;2022-09-09T00:30:14;15.10;99.90
18797;DHT22;9526;52.612;13.300;2022-09-09T00:32:41;15.00;99.90
18797;DHT22;9526;52.612;13.300;2022-09-09T00:35:16;15.00;99.90
18797;DHT22;9526;52.612;13.300;2022-09-09T00:37:41;14.90;99.90
18797;DHT22;9526;52.612;13.300;2022-09-09T00:40:16;14.90;99.90
18797;DHT22;9526;52.612;13.300;2022-09-09T00:42:45;14.90;99.90
18797;DHT22;9526;52.612;13.300;2022-09-09T00:45:32;14.90;99.90
18797;DHT22;9526;52.612;13.300;2022-09-09T00:48:03;14.90;99.90
18797;DHT22;9526;52.612;13.300;2022-09-09T00:50:41;14.80;99.90
18797;DHT22;9526;52.612;13.300;2022-09-09T00:53:22;14.80;99.90
18797;DHT22;9526;52.612;13.300;2022-09-09T00:55:57;14.80;99.90
18797;DHT22;9526;52.612;13.300;2022-09-09T00:58:27;14.70;99.90
18797;DHT22;9526;52.612;13.300;2022-09-09T01:00:56;14.70;99.90
18797;DHT22;9526;52.612;13.300;2022-09-09T01:03:28;14.70;99.90
18797;DHT22;9526;52.612;13.300;2022-09-09T01:06:14;14.60;99.90
18797;DHT22;9526;52.612;13.300;2022-09-09T01:08:56;14.60;99.90
18797;DHT22;9526;52.612;13.300;2022-09-09T01:11:32;14.60;99.90
18797;DHT22;9526;52.612;13.300;2022-09-09T01:14:05;14.60;99.90
18797;DHT22;9526;52.612;13.300;2022-09-09T01:16:36;14.50;99.90
18797;DHT22;9526;52.612;13.300;2022-09-09T01:19:02;14.50;99.90
18797;DHT22;9526;52.612;13.300;2022-09-09T01:21:34;14.50;99.90
18797;DHT22;9526;52.612;13.300;2022-09-09T01:24:22;14.40;99.90
18797;DHT22;9526;52.612;13.300;2022-09-09T01:27:02;14.40;99.90
18797;DHT22;9526;52.612;13.300;2022-09-09T01:29:29;14.40;99.90
18797;DHT22;9526;52.612;13.300;2022-09-09T01:31:54;14.40;99.90
18797;DHT22;9526;52.612;13.300;2022-09-09T01:34:20;14.30;99.90
18797;DHT22;9526;52.612;13.300;2022-09-09T01:36:48;14.30;99.90
18797;DHT22;9526;52.612;13.300;2022-09-09T01:39:15;14.30;99.90
18797;DHT22;9526;52.612;13.300;2022-09-09T01:41:39;14.30;99.90
18797;DHT22;9526;52.612;13.300;2022-09-09T01:44:08;14.20;99.90
18797;DHT22;9526;52.612;13.300;2022-09-09T01:46:35;14.20;99.90
18797;DHT22;9526;52.612;13.300;2022-09-09T01:49:02;14.20;99.90
18797;DHT22;9526;52.612;13.300;2022-09-09T01:51:29;14.20;99.90
18797;DHT22;9526;52.612;13.300;2022-09-09T01:53:56;14.10;99.90
18797;DHT22;9526;52.612;13.300;2022-09-09T01:56:29;14.10;99.90
18797;DHT22;9526;52.612;13.300;2022-09-09T01:59:15;14.10;99.90
18797;DHT22;9526;52.612;13.300;2022-09-09T02:02:02;14.10;99.90
18797;DHT22;9526;52.612;13.300;2022-09-09T02:04:40;14.00;99.90
18797;DHT22;9526;52.612;13.300;2022-09-09T02:07:21;14.00;99.90
18797;DHT22;9526;52.612;13.300;2022-09-09T02:09:58;14.00;99.90
18797;DHT22;9526;52.612;13.300;2022-09-09T02:12:25;14.00;99.90
18797;DHT22;9526;52.612;13.300;2022-09-09T02:14:57;13.90;99.90
18797;DHT22;9526;52.612;13.300;2022-09-09T02:17:33;13.90;99.90
18797;DHT22;9526;52.612;13.300;2022-09-09T02:20:07;13.80;99.90
18797;DHT22;9526;52.612;13.300;2022-09-09T02:22:47;13.80;99.90
18797;DHT22;9526;52.612;13.300;2022-09-09T02:25:16;13.80;99.90
18797;DHT22;9526;52.612;13.300;2022-09-09T02:27:43;13.80;99.90
18797;DHT22;9526;52.612;13.300;2022-09-09T02:30:11;13.80;99.90
18797;DHT22;9526;52.612;13.300;2022-09-09T02:32:42;13.70;99.90
18797;DHT22;9526;52.612;13.300;2022-09-09T02:35:12;13.70;99.90
18797;DHT22;9526;52.612;13.300;2022-09-09T02:37:39;13.70;99.90
18797;DHT22;9526;52.612;13.300;2022-09-09T02:40:06;13.70;99.90
18797;DHT22;9526;52.612;13.300;2022-09-09T02:42:38;13.60;99.90
18797;DHT22;9526;52.612;13.300;2022-09-09T02:45:03;13.60;99.90
18797;DHT22;9526;52.612;13.300;2022-09-09T02:47:34;13.60;99.90
18797;DHT22;9526;52.612;13.300;2022-09-09T02:50:12;13.60;99.90
18797;DHT22;9526;52.612;13.300;2022-09-09T02:52:47;13.60;99.90
18797;DHT22;9526;52.612;13.300;2022-09-09T02:55:20;13.60;99.90
18797;DHT22;9526;52.612;13.300;2022-09-09T02:57:51;13.60;99.90
18797;DHT22;9526;52.612;13.300;2022-09-09T03:00:16;13.50;99.90
18797;DHT22;9526;52.612;13.300;2022-09-09T03:02:48;13.50;99.90
18797;DHT22;9526;52.612;13.300;2022-09-09T03:05:11;13.50;99.90
18797;DHT22;9526;52.612;13.300;2022-09-09T03:07:35;13.50;99.90
18797;DHT22;9526;52.612;13.300;2022-09-09T03:09:59;13.50;99.90
18797;DHT22;9526;52.612;13.300;2022-09-09T03:12:22;13.40;99.90
18797;DHT22;9526;52.612;13.300;2022-09-09T03:14:46;13.50;99.90
18797;DHT22;9526;52.612;13.300;2022-09-09T03:17:10;13.40;99.90
18797;DHT22;9526;52.612;13.300;2022-09-09T03:19:41;13.40;99.90
18797;DHT22;9526;52.612;13.300;2022-09-09T03:22:08;13.40;99.90
18797;DHT22;9526;52.612;13.300;2022-09-09T03:24:36;13.40;99.90
18797;DHT22;9526;52.612;13.300;2022-09-09T03:26:59;13.40;99.90
18797;DHT22;9526;52.612;13.300;2022-09-09T03:29:24;13.40;99.90
18797;DHT22;9526;52.612;13.300;2022-09-09T03:31:51;13.40;99.90
18797;DHT22;9526;52.612;13.300;2022-09-09T03:34:15;13.30;99.90
18797;DHT22;9526;52.612;13.300;2022-09-09T03:36:41;13.30;99.90
18797;DHT22;9526;52.612;13.300;2022-09-09T03:39:04;13.30;99.90
18797;DHT22;9526;52.612;13.300;2022-09-09T03:41:30;13.30;99.90
18797;DHT22;9526;52.612;13.300;2022-09-09T03:43:56;13.30;99.90
18797;DHT22;9526;52.612;13.300;2022-09-09T03:46:24;13.30;99.90
18797;DHT22;9526;52.612;13.300;2022-09-09T03:48:49;13.20;99.90
18797;DHT22;9526;52.612;13.300;2022-09-09T03:51:14;13.20;99.90
18797;DHT22;9526;52.612;13.300;2022-09-09T03:53:40;13.20;99.90
18797;DHT22;9526;52.612;13.300;2022-09-09T03:56:04;13.20;99.90
18797;DHT22;9526;52.612;13.300;2022-09-09T03:58:28;13.10;99.90
18797;DHT22;9526;52.612;13.300;2022-09-09T04:01:01;13.10;99.90
18797;DHT22;9526;52.612;13.300;2022-09-09T04:03:27;13.10;99.90
18797;DHT22;9526;52.612;13.300;2022-09-09T04:05:51;13.10;99.90
18797;DHT22;9526;52.612;13.300;2022-09-09T04:08:16;13.10;99.90
18797;DHT22;9526;52.612;13.300;2022-09-09T04:10:42;13.00;99.90
18797;DHT22;9526;52.612;13.300;2022-09-09T04:13:07;13.10;99.90
18797;DHT22;9526;52.612;13.300;2022-09-09T04:15:31;13.10;99.90
18797;DHT22;9526;52.612;13.300;2022-09-09T04:17:57;13.10;99.90
18797;DHT22;9526;52.612;13.300;2022-09-09T04:20:21;13.10;99.90
18797;DHT22;9526;52.612;13.300;2022-09-09T04:22:45;13.00;99.90
18797;DHT22;9526;52.612;13.300;2022-09-09T04:25:09;13.00;99.90
18797;DHT22;9526;52.612;13.300;2022-09-09T04:27:34;13.00;99.90
18797;DHT22;9526;52.612;13.300;2022-09-09T04:29:58;13.00;99.90
18797;DHT22;9526;52.612;13.300;2022-09-09T04:32:24;13.00;99.90
18797;DHT22;9526;52.612;13.300;2022-09-09T04:34:49;13.00;99.90
18797;DHT22;9526;52.612;13.300;2022-09-09T04:37:13;12.90;99.90
18797;DHT22;9526;52.612;13.300;2022-09-09T04:39:37;12.90;99.90
18797;DHT22;9526;52.612;13.300;2022-09-09T04:42:01;12.90;99.90
18797;DHT22;9526;52.612;13.300;2022-09-09T04:44:26;12.90;99.90
18797;DHT22;9526;52.612;13.300;2022-09-09T04:46:50;12.90;99.90
18797;DHT22;9526;52.612;13.300;2022-09-09T04:49:15;12.90;99.90
18797;DHT22;9526;52.612;13.300;2022-09-09T04:51:38;12.90;99.90
18797;DHT22;9526;52.612;13.300;2022-09-09T04:54:02;12.90;99.90
18797;DHT22;9526;52.612;13.300;2022-09-09T04:56:27;12.90;99.90
18797;DHT22;9526;52.612;13.300;2022-09-09T04:58:52;13.00;99.90
18797;DHT22;9526;52.612;13.300;2022-09-09T05:01:23;13.00;99.90
18797;DHT22;9526;52.612;13.300;2022-09-09T05:03:52;12.90;99.90
18797;DHT22;9526;52.612;13.300;2022-09-09T05:06:19;13.00;99.90
18797;DHT22;9526;52.612;13.300;2022-09-09T05:08:49;13.00;99.90
18797;DHT22;9526;52.612;13.300;2022-09-09T05:11:18;13.00;99.90
18797;DHT22;9526;52.612;13.300;2022-09-09T05:13:42;13.00;99.90
18797;DHT22;9526;52.612;13.300;2022-09-09T05:16:06;13.00;99.90
18797;DHT22;9526;52.612;13.300;2022-09-09T05:18:34;13.10;99.90
18797;DHT22;9526;52.612;13.300;2022-09-09T05:20:59;13.10;99.90
18797;DHT22;9526;52.612;13.300;2022-09-09T05:23:24;13.10;99.90
18797;DHT22;9526;52.612;13.300;2022-09-09T05:25:55;13.20;99.90
18797;DHT22;9526;52.612;13.300;2022-09-09T05:28:20;13.30;99.90
18797;DHT22;9526;52.612;13.300;2022-09-09T05:30:44;13.30;99.90
18797;DHT22;9526;52.612;13.300;2022-09-09T05:33:07;13.40;99.90
18797;DHT22;9526;52.612;13.300;2022-09-09T05:35:33;13.50;99.90
18797;DHT22;9526;52.612;13.300;2022-09-09T05:37:59;13.50;99.90
18797;DHT22;9526;52.612;13.300;2022-09-09T05:40:23;13.60;99.90
18797;DHT22;9526;52.612;13.300;2022-09-09T05:42:47;13.60;99.90
18797;DHT22;9526;52.612;13.300;2022-09-09T05:45:11;13.70;99.90
18797;DHT22;9526;52.612;13.300;2022-09-09T05:47:35;13.80;99.90
18797;DHT22;9526;52.612;13.300;2022-09-09T05:50:01;13.90;99.90
18797;DHT22;9526;52.612;13.300;2022-09-09T05:52:26;14.00;99.90
18797;DHT22;9526;52.612;13.300;2022-09-09T05:54:52;14.00;99.90
18797;DHT22;9526;52.612;13.300;2022-09-09T05:57:17;14.10;99.90
18797;DHT22;9526;52.612;13.300;2022-09-09T05:59:42;14.20;99.90
18797;DHT22;9526;52.612;13.300;2022-09-09T06:02:08;14.30;99.90
18797;DHT22;9526;52.612;13.300;2022-09-09T06:04:32;14.40;99.90
18797;DHT22;9526;52.612;13.300;2022-09-09T06:06:56;14.60;99.90
18797;DHT22;9526;52.612;13.300;2022-09-09T06:09:22;14.80;99.90
18797;DHT22;9526;52.612;13.300;2022-09-09T06:11:46;14.90;99.90
18797;DHT22;9526;52.612;13.300;2022-09-09T06:14:10;15.00;99.90
18797;DHT22;9526;52.612;13.300;2022-09-09T06:16:34;15.10;99.90
18797;DHT22;9526;52.612;13.300;2022-09-09T06:19:05;15.20;99.90
18797;DHT22;9526;52.612;13.300;2022-09-09T06:21:32;15.40;99.90
18797;DHT22;9526;52.612;13.300;2022-09-09T06:24:00;15.60;99.90
18797;DHT22;9526;52.612;13.300;2022-09-09T06:26:26;15.90;99.90
18797;DHT22;9526;52.612;13.300;2022-09-09T06:28:52;16.50;99.90
18797;DHT22;9526;52.612;13.300;2022-09-09T06:31:18;17.20;99.90
18797;DHT22;9526;52.612;13.300;2022-09-09T06:33:49;17.90;99.90
18797;DHT22;9526;52.612;13.300;2022-09-09T06:36:16;18.60;99.90
18797;DHT22;9526;52.612;13.300;2022-09-09T06:38:41;19.30;99.90
18797;DHT22;9526;52.612;13.300;2022-09-09T06:41:08;20.10;99.90
18797;DHT22;9526;52.612;13.300;2022-09-09T06:43:35;20.90;99.90
18797;DHT22;9526;52.612;13.300;2022-09-09T06:46:01;21.40;99.90
18797;DHT22;9526;52.612;13.300;2022-09-09T06:48:27;21.90;99.90
18797;DHT22;9526;52.612;13.300;2022-09-09T06:50:51;22.50;99.90
18797;DHT22;9526;52.612;13.300;2022-09-09T06:53:24;22.90;99.90
18797;DHT22;9526;52.612;13.300;2022-09-09T06:55:49;22.90;99.90
18797;DHT22;9526;52.612;13.300;2022-09-09T06:58:13;23.00;99.90
18797;DHT22;9526;52.612;13.300;2022-09-09T07:00:38;22.90;99.90
18797;DHT22;9526;52.612;13.300;2022-09-09T07:03:01;22.60;99.90
18797;DHT22;9526;52.612;13.300;2022-09-09T07:05:25;22.40;99.90
18797;DHT22;9526;52.612;13.300;2022-09-09T07:07:49;22.10;99.90
18797;DHT22;9526;52.612;13.300;2022-09-09T07:10:14;21.90;99.90
18797;DHT22;9526;52.612;13.300;2022-09-09T07:12:39;21.70;99.90
18797;DHT22;9526;52.612;13.300;2022-09-09T07:15:06;21.50;99.90
18797;DHT22;9526;52.612;13.300;2022-09-09T07:17:31;21.40;99.90
18797;DHT22;9526;52.612;13.300;2022-09-09T07:19:55;21.30;99.90
18797;DHT22;9526;52.612;13.300;2022-09-09T07:22:20;21.20;99.90
18797;DHT22;9526;52.612;13.300;2022-09-09T07:24:44;21.10;99.90
18797;DHT22;9526;52.612;13.300;2022-09-09T07:27:09;21.00;99.90
18797;DHT22;9526;52.612;13.300;2022-09-09T07:29:33;20.80;99.90
18797;DHT22;9526;52.612;13.300;2022-09-09T07:31:57;20.80;99.90
18797;DHT22;9526;52.612;13.300;2022-09-09T07:34:28;20.70;99.90
18797;DHT22;9526;52.612;13.300;2022-09-09T07:36:52;20.60;99.90
18797;DHT22;9526;52.612;13.300;2022-09-09T07:39:16;20.60;99.90
18797;DHT22;9526;52.612;13.300;2022-09-09T07:41:45;20.60;99.90
18797;DHT22;9526;52.612;13.300;2022-09-09T07:44:15;20.60;99.90
18797;DHT22;9526;52.612;13.300;2022-09-09T07:46:43;20.40;99.90
18797;DHT22;9526;52.612;13.300;2022-09-09T07:49:12;20.30;99.90
18797;DHT22;9526;52.612;13.300;2022-09-09T07:51:39;20.30;99.90
18797;DHT22;9526;52.612;13.300;2022-09-09T07:54:06;20.00;99.90
18797;DHT22;9526;52.612;13.300;2022-09-09T07:56:33;20.00;99.90
18797;DHT22;9526;52.612;13.300;2022-09-09T07:58:58;20.00;99.90
18797;DHT22;9526;52.612;13.300;2022-09-09T08:01:24;20.00;99.90
18797;DHT22;9526;52.612;13.300;2022-09-09T08:03:54;20.00;99.90
18797;DHT22;9526;52.612;13.300;2022-09-09T08:06:21;20.00;99.90
18797;DHT22;9526;52.612;13.300;2022-09-09T08:08:49;20.00;99.90
18797;DHT22;9526;52.612;13.300;2022-09-09T08:11:14;20.00;99.90
18797;DHT22;9526;52.612;13.300;2022-09-09T08:13:39;20.00;99.90
18797;DHT22;9526;52.612;13.300;2022-09-09T08:16:08;19.90;99.90
18797;DHT22;9526;52.612;13.300;2022-09-09T08:18:34;19.90;99.90
18797;DHT22;9526;52.612;13.300;2022-09-09T08:21:05;20.00;99.90
18797;DHT22;9526;52.612;13.300;2022-09-09T08:23:30;20.00;99.90
18797;DHT22;9526;52.612;13.300;2022-09-09T08:26:03;20.00;99.90
18797;DHT22;9526;52.612;13.300;2022-09-09T08:28:28;19.90;99.90
18797;DHT22;9526;52.612;13.300;2022-09-09T08:30:52;19.80;99.90
18797;DHT22;9526;52.612;13.300;2022-09-09T08:33:17;19.80;99.90
18797;DHT22;9526;52.612;13.300;2022-09-09T08:35:50;19.70;99.90
18797;DHT22;9526;52.612;13.300;2022-09-09T08:38:15;19.80;99.90
18797;DHT22;9526;52.612;13.300;2022-09-09T08:40:42;19.80;99.90
18797;DHT22;9526;52.612;13.300;2022-09-09T08:43:13;20.00;99.90
18797;DHT22;9526;52.612;13.300;2022-09-09T08:45:49;20.00;99.90
18797;DHT22;9526;52.612;13.300;2022-09-09T08:48:31;20.10;99.90
18797;DHT22;9526;52.612;13.300;2022-09-09T08:51:05;20.30;99.90
18797;DHT22;9526;52.612;13.300;2022-09-09T08:53:37;20.30;99.90
18797;DHT22;9526;52.612;13.300;2022-09-09T08:56:09;20.40;99.90
18797;DHT22;9526;52.612;13.300;2022-09-09T08:59:00;20.40;99.90
18797;DHT22;9526;52.612;13.300;2022-09-09T09:01:41;20.50;99.90
18797;DHT22;9526;52.612;13.300;2022-09-09T09:04:27;20.50;99.90
18797;DHT22;9526;52.612;13.300;2022-09-09T09:07:05;20.60;99.90
18797;DHT22;9526;52.612;13.300;2022-09-09T09:09:42;20.60;99.90
18797;DHT22;9526;52.612;13.300;2022-09-09T09:12:16;20.60;99.90
18797;DHT22;9526;52.612;13.300;2022-09-09T09:14:43;20.70;99.90
18797;DHT22;9526;52.612;13.300;2022-09-09T09:17:11;20.80;99.90
18797;DHT22;9526;52.612;13.300;2022-09-09T09:19:39;20.70;99.90
18797;DHT22;9526;52.612;13.300;2022-09-09T09:22:13;20.50;99.90
18797;DHT22;9526;52.612;13.300;2022-09-09T09:24:45;20.60;99.90
18797;DHT22;9526;52.612;13.300;2022-09-09T09:27:25;20.60;99.90
18797;DHT22;9526;52.612;13.300;2022-09-09T09:29:57;20.60;99.90
18797;DHT22;9526;52.612;13.300;2022-09-09T09:32:47;20.60;99.90
18797;DHT22;9526;52.612;13.300;2022-09-09T09:35:16;20.70;99.90
18797;DHT22;9526;52.612;13.300;2022-09-09T09:37:41;21.00;99.90
18797;DHT22;9526;52.612;13.300;2022-09-09T09:40:29;21.20;99.90
18797;DHT22;9526;52.612;13.300;2022-09-09T09:42:54;21.60;99.90
18797;DHT22;9526;52.612;13.300;2022-09-09T09:45:28;21.80;99.90
18797;DHT22;9526;52.612;13.300;2022-09-09T09:48:01;21.90;99.90
18797;DHT22;9526;52.612;13.300;2022-09-09T09:50:31;22.00;99.90
18797;DHT22;9526;52.612;13.300;2022-09-09T09:52:58;22.40;99.90
18797;DHT22;9526;52.612;13.300;2022-09-09T09:55:26;22.70;99.90
18797;DHT22;9526;52.612;13.300;2022-09-09T09:57:52;23.00;99.90
18797;DHT22;9526;52.612;13.300;2022-09-09T10:00:20;23.40;99.90
18797;DHT22;9526;52.612;13.300;2022-09-09T10:02:54;23.70;99.90
18797;DHT22;9526;52.612;13.300;2022-09-09T10:05:23;24.00;99.90
18797;DHT22;9526;52.612;13.300;2022-09-09T10:08:01;24.10;99.90
18797;DHT22;9526;52.612;13.300;2022-09-09T10:10:35;24.20;99.90
18797;DHT22;9526;52.612;13.300;2022-09-09T10:13:13;24.80;99.90
18797;DHT22;9526;52.612;13.300;2022-09-09T10:15:46;24.70;99.90
18797;DHT22;9526;52.612;13.300;2022-09-09T10:18:30;25.10;99.90
18797;DHT22;9526;52.612;13.300;2022-09-09T10:21:06;24.50;99.90
18797;DHT22;9526;52.612;13.300;2022-09-09T10:23:47;24.50;99.90
18797;DHT22;9526;52.612;13.300;2022-09-09T10:26:30;24.60;99.90
18797;DHT22;9526;52.612;13.300;2022-09-09T10:29:22;24.80;99.90
18797;DHT22;9526;52.612;13.300;2022-09-09T10:31:59;24.40;99.90
18797;DHT22;9526;52.612;13.300;2022-09-09T10:34:43;24.30;99.90
18797;DHT22;9526;52.612;13.300;2022-09-09T10:37:27;24.00;99.90
18797;DHT22;9526;52.612;13.300;2022-09-09T10:40:02;24.30;99.90
18797;DHT22;9526;52.612;13.300;2022-09-09T10:42:32;24.80;99.90
18797;DHT22;9526;52.612;13.300;2022-09-09T10:45:06;24.70;99.90
18797;DHT22;9526;52.612;13.300;2022-09-09T10:50:43;24.70;99.90
18797;DHT22;9526;52.612;13.300;2022-09-09T10:53:37;25.30;99.90
18797;DHT22;9526;52.612;13.300;2022-09-09T10:56:09;25.60;99.90
18797;DHT22;9526;52.612;13.300;2022-09-09T10:58:40;25.60;99.90
18797;DHT22;9526;52.612;13.300;2022-09-09T11:01:12;25.70;99.90
18797;DHT22;9526;52.612;13.300;2022-09-09T11:03:40;25.80;99.90
18797;DHT22;9526;52.612;13.300;2022-09-09T11:06:09;25.80;99.90
18797;DHT22;9526;52.612;13.300;2022-09-09T11:08:38;25.80;99.90
18797;DHT22;9526;52.612;13.300;2022-09-09T11:11:04;26.10;99.90
18797;DHT22;9526;52.612;13.300;2022-09-09T11:13:38;25.80;99.90
18797;DHT22;9526;52.612;13.300;2022-09-09T11:16:15;26.10;99.90
18797;DHT22;9526;52.612;13.300;2022-09-09T11:18:43;26.00;99.90
18797;DHT22;9526;52.612;13.300;2022-09-09T11:21:18;26.30;99.90
18797;DHT22;9526;52.612;13.300;2022-09-09T11:23:49;26.10;99.90
18797;DHT22;9526;52.612;13.300;2022-09-09T11:26:17;25.90;99.90
18797;DHT22;9526;52.612;13.300;2022-09-09T11:28:54;25.80;99.90
18797;DHT22;9526;52.612;13.300;2022-09-09T11:31:44;25.70;99.90
18797;DHT22;9526;52.612;13.300;2022-09-09T11:34:19;25.50;99.90
18797;DHT22;9526;52.612;13.300;2022-09-09T11:37:01;25.60;99.90
18797;DHT22;9526;52.612;13.300;2022-09-09T11:40:00;25.40;99.90
18797;DHT22;9526;52.612;13.300;2022-09-09T11:42:32;25.50;99.90
18797;DHT22;9526;52.612;13.300;2022-09-09T11:44:56;25.80;99.90
18797;DHT22;9526;52.612;13.300;2022-09-09T11:47:23;25.70;99.90
18797;DHT22;9526;52.612;13.300;2022-09-09T11:49:51;25.70;99.90
18797;DHT22;9526;52.612;13.300;2022-09-09T11:52:22;25.50;99.90
18797;DHT22;9526;52.612;13.300;2022-09-09T11:54:49;25.70;99.90
18797;DHT22;9526;52.612;13.300;2022-09-09T11:57:23;26.00;99.90
18797;DHT22;9526;52.612;13.300;2022-09-09T11:59:51;25.70;99.90
18797;DHT22;9526;52.612;13.300;2022-09-09T12:02:21;25.90;99.90
18797;DHT22;9526;52.612;13.300;2022-09-09T12:04:53;26.20;99.90
18797;DHT22;9526;52.612;13.300;2022-09-09T12:07:31;26.20;99.90
18797;DHT22;9526;52.612;13.300;2022-09-09T12:09:59;26.30;99.90
18797;DHT22;9526;52.612;13.300;2022-09-09T12:12:31;26.30;99.90
18797;DHT22;9526;52.612;13.300;2022-09-09T12:17:49;26.20;99.90
18797;DHT22;9526;52.612;13.300;2022-09-09T12:20:15;26.10;99.90
18797;DHT22;9526;52.612;13.300;2022-09-09T12:22:51;25.80;99.90
18797;DHT22;9526;52.612;13.300;2022-09-09T12:25:26;25.90;99.90
18797;DHT22;9526;52.612;13.300;2022-09-09T12:28:04;25.80;99.90
18797;DHT22;9526;52.612;13.300;2022-09-09T12:30:34;26.00;99.90
18797;DHT22;9526;52.612;13.300;2022-09-09T12:33:10;25.90;99.90
18797;DHT22;9526;52.612;13.300;2022-09-09T12:35:35;25.60;99.90
18797;DHT22;9526;52.612;13.300;2022-09-09T12:38:02;25.70;99.90
18797;DHT22;9526;52.612;13.300;2022-09-09T12:40:30;25.70;99.90
18797;DHT22;9526;52.612;13.300;2022-09-09T12:42:57;26.00;99.90
18797;DHT22;9526;52.612;13.300;2022-09-09T12:45:24;26.00;99.90
18797;DHT22;9526;52.612;13.300;2022-09-09T12:47:52;26.20;99.90
18797;DHT22;9526;52.612;13.300;2022-09-09T12:50:20;26.30;99.90
18797;DHT22;9526;52.612;13.300;2022-09-09T12:52:48;26.20;99.90
18797;DHT22;9526;52.612;13.300;2022-09-09T12:55:19;26.40;99.90
18797;DHT22;9526;52.612;13.300;2022-09-09T12:57:47;26.70;99.90
18797;DHT22;9526;52.612;13.300;2022-09-09T13:00:15;26.60;99.90
18797;DHT22;9526;52.612;13.300;2022-09-09T13:02:49;26.40;99.90
18797;DHT22;9526;52.612;13.300;2022-09-09T13:05:17;26.40;99.90
18797;DHT22;9526;52.612;13.300;2022-09-09T13:07:42;26.20;99.90
18797;DHT22;9526;52.612;13.300;2022-09-09T13:10:11;25.80;99.90
18797;DHT22;9526;52.612;13.300;2022-09-09T13:12:48;25.80;99.90
18797;DHT22;9526;52.612;13.300;2022-09-09T13:15:19;25.80;99.90
18797;DHT22;9526;52.612;13.300;2022-09-09T13:17:50;25.80;99.90
18797;DHT22;9526;52.612;13.300;2022-09-09T13:20:17;25.80;99.90
18797;DHT22;9526;52.612;13.300;2022-09-09T13:22:41;25.40;99.90
18797;DHT22;9526;52.612;13.300;2022-09-09T13:25:13;25.40;99.90
18797;DHT22;9526;52.612;13.300;2022-09-09T13:27:53;25.20;99.90
18797;DHT22;9526;52.612;13.300;2022-09-09T13:30:21;25.00;99.90
18797;DHT22;9526;52.612;13.300;2022-09-09T13:32:47;25.00;99.90
18797;DHT22;9526;52.612;13.300;2022-09-09T13:35:23;25.10;99.90
18797;DHT22;9526;52.612;13.300;2022-09-09T13:37:47;25.10;99.90
18797;DHT22;9526;52.612;13.300;2022-09-09T13:40:17;24.90;99.90
18797;DHT22;9526;52.612;13.300;2022-09-09T13:42:44;24.90;99.90
18797;DHT22;9526;52.612;13.300;2022-09-09T13:45:18;24.70;99.90
18797;DHT22;9526;52.612;13.300;2022-09-09T13:47:43;24.60;99.90
18797;DHT22;9526;52.612;13.300;2022-09-09T13:50:18;24.40;99.90
18797;DHT22;9526;52.612;13.300;2022-09-09T13:52:43;24.40;99.90
18797;DHT22;9526;52.612;13.300;2022-09-09T13:55:08;24.30;99.90
18797;DHT22;9526;52.612;13.300;2022-09-09T13:57:32;24.40;99.90
18797;DHT22;9526;52.612;13.300;2022-09-09T13:59:56;24.40;99.90
18797;DHT22;9526;52.612;13.300;2022-09-09T14:02:28;24.40;99.90
18797;DHT22;9526;52.612;13.300;2022-09-09T14:04:53;24.50;99.90
18797;DHT22;9526;52.612;13.300;2022-09-09T14:07:18;24.50;99.90
18797;DHT22;9526;52.612;13.300;2022-09-09T14:09:42;24.50;99.90
18797;DHT22;9526;52.612;13.300;2022-09-09T14:12:08;24.50;99.90
18797;DHT22;9526;52.612;13.300;2022-09-09T14:14:32;24.40;99.90
18797;DHT22;9526;52.612;13.300;2022-09-09T14:16:55;24.50;99.90
18797;DHT22;9526;52.612;13.300;2022-09-09T14:19:21;24.50;99.90
18797;DHT22;9526;52.612;13.300;2022-09-09T14:21:44;24.30;99.90
18797;DHT22;9526;52.612;13.300;2022-09-09T14:24:08;24.20;99.90
18797;DHT22;9526;52.612;13.300;2022-09-09T14:26:31;24.30;99.90
18797;DHT22;9526;52.612;13.300;2022-09-09T14:28:55;24.20;99.90
18797;DHT22;9526;52.612;13.300;2022-09-09T14:31:19;24.20;99.90
18797;DHT22;9526;52.612;13.300;2022-09-09T14:33:43;24.30;99.90
18797;DHT22;9526;52.612;13.300;2022-09-09T14:36:09;24.40;99.90
18797;DHT22;9526;52.612;13.300;2022-09-09T14:38:34;24.50;99.90
18797;DHT22;9526;52.612;13.300;2022-09-09T14:41:01;24.60;99.90
18797;DHT22;9526;52.612;13.300;2022-09-09T14:43:25;24.60;99.90
18797;DHT22;9526;52.612;13.300;2022-09-09T14:45:49;24.40;99.90
18797;DHT22;9526;52.612;13.300;2022-09-09T14:48:13;24.30;99.90
18797;DHT22;9526;52.612;13.300;2022-09-09T14:50:37;24.40;99.90
18797;DHT22;9526;52.612;13.300;2022-09-09T14:53:03;24.60;99.90
18797;DHT22;9526;52.612;13.300;2022-09-09T14:55:27;24.70;99.90
18797;DHT22;9526;52.612;13.300;2022-09-09T14:57:51;24.60;99.90
18797;DHT22;9526;52.612;13.300;2022-09-09T15:00:15;24.60;99.90
18797;DHT22;9526;52.612;13.300;2022-09-09T15:02:39;24.50;99.90
18797;DHT22;9526;52.612;13.300;2022-09-09T15:05:03;24.50;99.90
18797;DHT22;9526;52.612;13.300;2022-09-09T15:07:27;24.60;99.90
18797;DHT22;9526;52.612;13.300;2022-09-09T15:09:52;24.70;99.90
18797;DHT22;9526;52.612;13.300;2022-09-09T15:12:16;24.60;99.90
18797;DHT22;9526;52.612;13.300;2022-09-09T15:14:41;24.40;99.90
18797;DHT22;9526;52.612;13.300;2022-09-09T15:17:04;24.50;99.90
18797;DHT22;9526;52.612;13.300;2022-09-09T15:19:28;24.50;99.90
18797;DHT22;9526;52.612;13.300;2022-09-09T15:21:51;24.60;99.90
18797;DHT22;9526;52.612;13.300;2022-09-09T15:24:16;24.70;99.90
18797;DHT22;9526;52.612;13.300;2022-09-09T15:26:41;24.70;99.90
18797;DHT22;9526;52.612;13.300;2022-09-09T15:29:05;24.70;99.90
18797;DHT22;9526;52.612;13.300;2022-09-09T15:31:30;24.60;99.90
18797;DHT22;9526;52.612;13.300;2022-09-09T15:33:56;24.30;99.90
18797;DHT22;9526;52.612;13.300;2022-09-09T15:36:24;24.20;99.90
18797;DHT22;9526;52.612;13.300;2022-09-09T15:38:49;24.10;99.90
18797;DHT22;9526;52.612;13.300;2022-09-09T15:41:14;24.10;99.90
18797;DHT22;9526;52.612;13.300;2022-09-09T15:43:43;24.10;99.90
18797;DHT22;9526;52.612;13.300;2022-09-09T15:46:24;24.00;99.90
18797;DHT22;9526;52.612;13.300;2022-09-09T15:48:50;24.00;99.90